sensor_id;sensor_type;location;lat;lon;timestamp;temperature;humidity
32769;DHT22;23049;54.304;8.826;2023-02-02T00:01:16;6.20;99.90
32769;DHT22;23049;54.304;8.826;2023-02-02T00:03:42;6.20;99.90
32769;DHT22;23049;54.304;8.826;2023-02-02T00:06:08;6.10;99.90
32769;DHT22;23049;54.304;8.826;2023-02-02T00:08:33;6.10;99.90
32769;DHT22;23049;54.304;8.826;2023-02-02T00:11:00;6.10;99.90
32769;DHT22;23049;54.304;8.826;2023-02-02T00:13:26;6.10;99.90
32769;DHT22;23049;54.304;8.826;2023-02-02T00:15:52;6.20;99.90
32769;DHT22;23049;54.304;8.826;2023-02-02T00:18:17;6.20;99.90
32769;DHT22;23049;54.304;8.826;2023-02-02T00:20:43;6.30;99.90
32769;DHT22;23049;54.304;8.826;2023-02-02T00:23:09;6.30;99.90
32769;DHT22;23049;54.304;8.826;2023-02-02T00:25:35;6.30;99.90
32769;DHT22;23049;54.304;8.826;2023-02-02T00:28:00;6.30;99.90
32769;DHT22;23049;54.304;8.826;2023-02-02T00:30:26;6.30;99.90
32769;DHT22;23049;54.304;8.826;2023-02-02T00:32:51;6.10;99.90
32769;DHT22;23049;54.304;8.826;2023-02-02T00:35:17;6.00;99.90
32769;DHT22;23049;54.304;8.826;2023-02-02T00:37:43;6.00;99.90
32769;DHT22;23049;54.304;8.826;2023-02-02T00:40:09;6.00;99.90
32769;DHT22;23049;54.304;8.826;2023-02-02T00:42:35;6.00;99.90
32769;DHT22;23049;54.304;8.826;2023-02-02T00:45:00;6.10;99.90
32769;DHT22;23049;54.304;8.826;2023-02-02T00:47:46;6.20;99.90
32769;DHT22;23049;54.304;8.826;2023-02-02T00:50:13;6.10;99.90
32769;DHT22;23049;54.304;8.826;2023-02-02T00:52:39;6.10;99.90
32769;DHT22;23049;54.304;8.826;2023-02-02T00:55:04;6.10;99.90
32769;DHT22;23049;54.304;8.826;2023-02-02T00:57:30;6.10;99.90
32769;DHT22;23049;54.304;8.826;2023-02-02T00:59:56;6.20;99.90
32769;DHT22;23049;54.304;8.826;2023-02-02T01:02:21;6.10;99.90
32769;DHT22;23049;54.304;8.826;2023-02-02T01:04:47;6.10;99.90
32769;DHT22;23049;54.304;8.826;2023-02-02T01:07:12;6.10;99.90
32769;DHT22;23049;54.304;8.826;2023-02-02T01:09:38;6.00;99.90
32769;DHT22;23049;54.304;8.826;2023-02-02T01:12:03;6.00;99.90
32769;DHT22;23049;54.304;8.826;2023-02-02T01:14:29;6.00;99.90
32769;DHT22;23049;54.304;8.826;2023-02-02T01:16:54;6.10;99.90
32769;DHT22;23049;54.304;8.826;2023-02-02T01:19:20;6.10;99.90
32769;DHT22;23049;54.304;8.826;2023-02-02T01:21:45;6.10;99.90
32769;DHT22;23049;54.304;8.826;2023-02-02T01:24:11;6.10;99.90
32769;DHT22;23049;54.304;8.826;2023-02-02T01:26:36;6.10;99.90
32769;DHT22;23049;54.304;8.826;2023-02-02T01:29:02;6.20;99.90
32769;DHT22;23049;54.304;8.826;2023-02-02T01:31:27;6.20;99.90
32769;DHT22;23049;54.304;8.826;2023-02-02T01:33:53;6.20;99.90
32769;DHT22;23049;54.304;8.826;2023-02-02T01:36:19;6.30;99.90
32769;DHT22;23049;54.304;8.826;2023-02-02T01:38:45;6.20;99.90
32769;DHT22;23049;54.304;8.826;2023-02-02T01:41:12;6.20;99.90
32769;DHT22;23049;54.304;8.826;2023-02-02T01:46:13;6.20;99.90
32769;DHT22;23049;54.304;8.826;2023-02-02T01:48:40;6.10;99.90
32769;DHT22;23049;54.304;8.826;2023-02-02T01:51:07;6.00;99.90
32769;DHT22;23049;54.304;8.826;2023-02-02T01:53:34;5.90;99.90
32769;DHT22;23049;54.304;8.826;2023-02-02T01:56:00;5.90;99.90
32769;DHT22;23049;54.304;8.826;2023-02-02T01:58:28;5.80;99.90
32769;DHT22;23049;54.304;8.826;2023-02-02T02:00:54;5.90;99.90
32769;DHT22;23049;54.304;8.826;2023-02-02T02:03:21;5.80;99.90
32769;DHT22;23049;54.304;8.826;2023-02-02T02:05:55;5.80;99.90
32769;DHT22;23049;54.304;8.826;2023-02-02T02:10:47;5.90;99.90
32769;DHT22;23049;54.304;8.826;2023-02-02T02:13:12;5.90;99.90
32769;DHT22;23049;54.304;8.826;2023-02-02T02:15:44;5.90;99.90
32769;DHT22;23049;54.304;8.826;2023-02-02T02:18:38;5.90;99.90
32769;DHT22;23049;54.304;8.826;2023-02-02T02:21:11;5.90;99.90
32769;DHT22;23049;54.304;8.826;2023-02-02T02:26:57;5.80;99.90
32769;DHT22;23049;54.304;8.826;2023-02-02T02:34:54;5.70;99.90
32769;DHT22;23049;54.304;8.826;2023-02-02T02:39:49;5.60;99.90
32769;DHT22;23049;54.304;8.826;2023-02-02T02:42:17;5.50;99.90
32769;DHT22;23049;54.304;8.826;2023-02-02T02:44:44;5.50;99.90
32769;DHT22;23049;54.304;8.826;2023-02-02T02:47:11;5.50;99.90
32769;DHT22;23049;54.304;8.826;2023-02-02T02:49:44;5.50;99.90
32769;DHT22;23049;54.304;8.826;2023-02-02T02:52:09;5.50;99.90
32769;DHT22;23049;54.304;8.826;2023-02-02T02:54:36;5.60;99.90
32769;DHT22;23049;54.304;8.826;2023-02-02T03:02:25;5.70;99.90
32769;DHT22;23049;54.304;8.826;2023-02-02T03:07:35;5.70;99.90
32769;DHT22;23049;54.304;8.826;2023-02-02T03:10:03;5.70;99.90
32769;DHT22;23049;54.304;8.826;2023-02-02T03:12:29;5.70;99.90
32769;DHT22;23049;54.304;8.826;2023-02-02T03:14:55;5.70;99.90
32769;DHT22;23049;54.304;8.826;2023-02-02T03:17:20;5.80;99.90
32769;DHT22;23049;54.304;8.826;2023-02-02T03:19:46;5.90;99.90
32769;DHT22;23049;54.304;8.826;2023-02-02T03:22:11;5.90;99.90
32769;DHT22;23049;54.304;8.826;2023-02-02T03:24:37;5.90;99.90
32769;DHT22;23049;54.304;8.826;2023-02-02T03:27:02;5.90;99.90
32769;DHT22;23049;54.304;8.826;2023-02-02T03:29:28;5.90;99.90
32769;DHT22;23049;54.304;8.826;2023-02-02T03:31:53;5.90;99.90
32769;DHT22;23049;54.304;8.826;2023-02-02T03:34:19;5.90;99.90
32769;DHT22;23049;54.304;8.826;2023-02-02T03:36:44;5.90;99.90
32769;DHT22;23049;54.304;8.826;2023-02-02T03:39:10;5.90;99.90
32769;DHT22;23049;54.304;8.826;2023-02-02T03:41:35;5.90;99.90
32769;DHT22;23049;54.304;8.826;2023-02-02T03:44:01;5.90;99.90
32769;DHT22;23049;54.304;8.826;2023-02-02T03:46:26;5.90;99.90
32769;DHT22;23049;54.304;8.826;2023-02-02T03:48:52;5.90;99.90
32769;DHT22;23049;54.304;8.826;2023-02-02T03:51:17;5.90;99.90
32769;DHT22;23049;54.304;8.826;2023-02-02T03:53:43;5.90;99.90
32769;DHT22;23049;54.304;8.826;2023-02-02T03:56:08;6.00;99.90
32769;DHT22;23049;54.304;8.826;2023-02-02T03:58:34;6.00;99.90
32769;DHT22;23049;54.304;8.826;2023-02-02T04:01:06;6.00;99.90
32769;DHT22;23049;54.304;8.826;2023-02-02T04:03:32;6.00;99.90
32769;DHT22;23049;54.304;8.826;2023-02-02T04:05:58;6.00;99.90
32769;DHT22;23049;54.304;8.826;2023-02-02T04:08:24;6.00;99.90
32769;DHT22;23049;54.304;8.826;2023-02-02T04:10:49;6.00;99.90
32769;DHT22;23049;54.304;8.826;2023-02-02T04:13:15;5.90;99.90
32769;DHT22;23049;54.304;8.826;2023-02-02T04:15:40;5.90;99.90
32769;DHT22;23049;54.304;8.826;2023-02-02T04:18:06;5.90;99.90
32769;DHT22;23049;54.304;8.826;2023-02-02T04:20:31;5.80;99.90
32769;DHT22;23049;54.304;8.826;2023-02-02T04:22:57;5.70;99.90
32769;DHT22;23049;54.304;8.826;2023-02-02T04:25:23;5.60;99.90
32769;DHT22;23049;54.304;8.826;2023-02-02T04:27:48;5.50;99.90
32769;DHT22;23049;54.304;8.826;2023-02-02T04:30:14;5.40;99.90
32769;DHT22;23049;54.304;8.826;2023-02-02T04:32:39;5.30;99.90
32769;DHT22;23049;54.304;8.826;2023-02-02T04:35:05;5.20;99.90
32769;DHT22;23049;54.304;8.826;2023-02-02T04:37:30;5.20;99.90
32769;DHT22;23049;54.304;8.826;2023-02-02T04:39:56;5.20;99.90
32769;DHT22;23049;54.304;8.826;2023-02-02T04:42:22;5.20;99.90
32769;DHT22;23049;54.304;8.826;2023-02-02T04:44:47;5.30;99.90
32769;DHT22;23049;54.304;8.826;2023-02-02T04:47:12;5.30;99.90
32769;DHT22;23049;54.304;8.826;2023-02-02T04:49:38;5.30;99.90
32769;DHT22;23049;54.304;8.826;2023-02-02T04:52:04;5.30;99.90
32769;DHT22;23049;54.304;8.826;2023-02-02T04:54:29;5.20;99.90
32769;DHT22;23049;54.304;8.826;2023-02-02T04:56:55;5.30;99.90
32769;DHT22;23049;54.304;8.826;2023-02-02T04:59:20;5.40;99.90
32769;DHT22;23049;54.304;8.826;2023-02-02T05:01:46;5.40;99.90
32769;DHT22;23049;54.304;8.826;2023-02-02T05:04:12;5.30;99.90
32769;DHT22;23049;54.304;8.826;2023-02-02T05:06:38;5.30;99.90
32769;DHT22;23049;54.304;8.826;2023-02-02T05:09:03;5.20;99.90
32769;DHT22;23049;54.304;8.826;2023-02-02T05:11:29;5.30;99.90
32769;DHT22;23049;54.304;8.826;2023-02-02T05:13:55;5.30;99.90
32769;DHT22;23049;54.304;8.826;2023-02-02T05:16:20;5.40;99.90
32769;DHT22;23049;54.304;8.826;2023-02-02T05:18:50;5.40;99.90
32769;DHT22;23049;54.304;8.826;2023-02-02T05:21:16;5.40;99.90
32769;DHT22;23049;54.304;8.826;2023-02-02T05:23:41;5.40;99.90
32769;DHT22;23049;54.304;8.826;2023-02-02T05:26:09;5.30;99.90
32769;DHT22;23049;54.304;8.826;2023-02-02T05:28:36;5.30;99.90
32769;DHT22;23049;54.304;8.826;2023-02-02T05:31:04;5.30;99.90
32769;DHT22;23049;54.304;8.826;2023-02-02T05:33:31;5.20;99.90
32769;DHT22;23049;54.304;8.826;2023-02-02T05:35:56;5.20;99.90
32769;DHT22;23049;54.304;8.826;2023-02-02T05:38:22;5.20;99.90
32769;DHT22;23049;54.304;8.826;2023-02-02T05:40:48;5.00;99.90
32769;DHT22;23049;54.304;8.826;2023-02-02T05:43:13;4.90;99.90
32769;DHT22;23049;54.304;8.826;2023-02-02T05:45:39;4.90;99.90
32769;DHT22;23049;54.304;8.826;2023-02-02T05:48:04;4.80;99.90
32769;DHT22;23049;54.304;8.826;2023-02-02T05:50:30;4.80;99.90
32769;DHT22;23049;54.304;8.826;2023-02-02T05:52:55;4.90;99.90
32769;DHT22;23049;54.304;8.826;2023-02-02T05:55:21;4.90;99.90
32769;DHT22;23049;54.304;8.826;2023-02-02T05:57:47;4.90;99.90
32769;DHT22;23049;54.304;8.826;2023-02-02T06:00:12;4.90;99.90
32769;DHT22;23049;54.304;8.826;2023-02-02T06:02:38;4.90;99.90
32769;DHT22;23049;54.304;8.826;2023-02-02T06:05:04;4.90;99.90
32769;DHT22;23049;54.304;8.826;2023-02-02T06:07:29;4.90;99.90
32769;DHT22;23049;54.304;8.826;2023-02-02T06:09:55;4.90;99.90
32769;DHT22;23049;54.304;8.826;2023-02-02T06:12:20;4.80;99.90
32769;DHT22;23049;54.304;8.826;2023-02-02T06:14:46;4.70;99.90
32769;DHT22;23049;54.304;8.826;2023-02-02T06:17:11;4.60;99.90
32769;DHT22;23049;54.304;8.826;2023-02-02T06:19:37;4.60;99.90
32769;DHT22;23049;54.304;8.826;2023-02-02T06:22:02;4.50;99.90
32769;DHT22;23049;54.304;8.826;2023-02-02T06:24:28;4.50;99.90
32769;DHT22;23049;54.304;8.826;2023-02-02T06:26:53;4.60;99.90
32769;DHT22;23049;54.304;8.826;2023-02-02T06:29:19;4.70;99.90
32769;DHT22;23049;54.304;8.826;2023-02-02T06:31:44;4.70;99.90
32769;DHT22;23049;54.304;8.826;2023-02-02T06:34:10;4.80;99.90
32769;DHT22;23049;54.304;8.826;2023-02-02T06:36:38;4.80;99.90
32769;DHT22;23049;54.304;8.826;2023-02-02T06:39:06;4.80;99.90
32769;DHT22;23049;54.304;8.826;2023-02-02T06:41:33;4.70;99.90
32769;DHT22;23049;54.304;8.826;2023-02-02T06:43:58;4.80;99.90
32769;DHT22;23049;54.304;8.826;2023-02-02T06:46:24;4.90;99.90
32769;DHT22;23049;54.304;8.826;2023-02-02T06:48:50;4.80;99.90
32769;DHT22;23049;54.304;8.826;2023-02-02T06:51:17;4.90;99.90
32769;DHT22;23049;54.304;8.826;2023-02-02T06:53:43;4.90;99.90
32769;DHT22;23049;54.304;8.826;2023-02-02T06:56:10;4.90;99.90
32769;DHT22;23049;54.304;8.826;2023-02-02T06:58:36;5.00;99.90
32769;DHT22;23049;54.304;8.826;2023-02-02T07:01:02;5.00;99.90
32769;DHT22;23049;54.304;8.826;2023-02-02T07:03:28;5.00;99.90
32769;DHT22;23049;54.304;8.826;2023-02-02T07:05:54;5.00;99.90
32769;DHT22;23049;54.304;8.826;2023-02-02T07:08:19;5.10;99.90
32769;DHT22;23049;54.304;8.826;2023-02-02T07:10:45;5.10;99.90
32769;DHT22;23049;54.304;8.826;2023-02-02T07:13:11;5.10;99.90
32769;DHT22;23049;54.304;8.826;2023-02-02T07:15:37;5.00;99.90
32769;DHT22;23049;54.304;8.826;2023-02-02T07:18:03;5.00;99.90
32769;DHT22;23049;54.304;8.826;2023-02-02T07:20:29;5.00;99.90
32769;DHT22;23049;54.304;8.826;2023-02-02T07:22:54;5.00;99.90
32769;DHT22;23049;54.304;8.826;2023-02-02T07:25:20;5.00;99.90
32769;DHT22;23049;54.304;8.826;2023-02-02T07:27:45;5.00;99.90
32769;DHT22;23049;54.304;8.826;2023-02-02T07:30:12;5.00;99.90
32769;DHT22;23049;54.304;8.826;2023-02-02T07:32:37;5.00;99.90
32769;DHT22;23049;54.304;8.826;2023-02-02T07:35:03;5.10;99.90
32769;DHT22;23049;54.304;8.826;2023-02-02T07:37:29;5.10;99.90
32769;DHT22;23049;54.304;8.826;2023-02-02T07:39:55;5.10;99.90
32769;DHT22;23049;54.304;8.826;2023-02-02T07:42:20;5.10;99.90
32769;DHT22;23049;54.304;8.826;2023-02-02T07:44:46;5.10;99.90
32769;DHT22;23049;54.304;8.826;2023-02-02T07:47:11;5.10;99.90
32769;DHT22;23049;54.304;8.826;2023-02-02T07:49:37;5.00;99.90
32769;DHT22;23049;54.304;8.826;2023-02-02T07:52:02;5.00;99.90
32769;DHT22;23049;54.304;8.826;2023-02-02T07:54:28;5.10;99.90
32769;DHT22;23049;54.304;8.826;2023-02-02T07:56:53;5.10;99.90
32769;DHT22;23049;54.304;8.826;2023-02-02T07:59:19;5.10;99.90
32769;DHT22;23049;54.304;8.826;2023-02-02T08:01:44;5.10;99.90
32769;DHT22;23049;54.304;8.826;2023-02-02T08:04:10;5.10;99.90
32769;DHT22;23049;54.304;8.826;2023-02-02T08:06:36;5.10;99.90
32769;DHT22;23049;54.304;8.826;2023-02-02T08:09:03;5.20;99.90
32769;DHT22;23049;54.304;8.826;2023-02-02T08:11:29;5.20;99.90
32769;DHT22;23049;54.304;8.826;2023-02-02T08:13:56;5.10;99.90
32769;DHT22;23049;54.304;8.826;2023-02-02T08:16:22;5.20;99.90
32769;DHT22;23049;54.304;8.826;2023-02-02T08:18:48;5.20;99.90
32769;DHT22;23049;54.304;8.826;2023-02-02T08:21:14;5.20;99.90
32769;DHT22;23049;54.304;8.826;2023-02-02T08:23:40;5.20;99.90
32769;DHT22;23049;54.304;8.826;2023-02-02T08:26:07;5.10;99.90
32769;DHT22;23049;54.304;8.826;2023-02-02T08:28:33;5.10;99.90
32769;DHT22;23049;54.304;8.826;2023-02-02T08:31:07;5.10;99.90
32769;DHT22;23049;54.304;8.826;2023-02-02T08:33:32;5.10;99.90
32769;DHT22;23049;54.304;8.826;2023-02-02T08:35:58;5.10;99.90
32769;DHT22;23049;54.304;8.826;2023-02-02T08:38:24;5.10;99.90
32769;DHT22;23049;54.304;8.826;2023-02-02T08:40:49;5.20;99.90
32769;DHT22;23049;54.304;8.826;2023-02-02T08:43:15;5.20;99.90
32769;DHT22;23049;54.304;8.826;2023-02-02T08:45:42;5.30;99.90
32769;DHT22;23049;54.304;8.826;2023-02-02T08:48:07;5.30;99.90
32769;DHT22;23049;54.304;8.826;2023-02-02T08:50:33;5.30;99.90
32769;DHT22;23049;54.304;8.826;2023-02-02T08:52:58;5.30;99.90
32769;DHT22;23049;54.304;8.826;2023-02-02T08:55:24;5.30;99.90
32769;DHT22;23049;54.304;8.826;2023-02-02T08:57:49;5.40;99.90
32769;DHT22;23049;54.304;8.826;2023-02-02T09:00:15;5.40;99.90
32769;DHT22;23049;54.304;8.826;2023-02-02T09:02:41;5.40;99.90
32769;DHT22;23049;54.304;8.826;2023-02-02T09:05:06;5.50;99.90
32769;DHT22;23049;54.304;8.826;2023-02-02T09:07:32;5.60;99.90
32769;DHT22;23049;54.304;8.826;2023-02-02T09:09:57;5.70;99.90
32769;DHT22;23049;54.304;8.826;2023-02-02T09:12:23;5.80;99.90
32769;DHT22;23049;54.304;8.826;2023-02-02T09:14:49;5.90;99.90
32769;DHT22;23049;54.304;8.826;2023-02-02T09:17:14;6.00;99.90
32769;DHT22;23049;54.304;8.826;2023-02-02T09:19:40;6.00;99.90
32769;DHT22;23049;54.304;8.826;2023-02-02T09:22:05;6.00;99.90
32769;DHT22;23049;54.304;8.826;2023-02-02T09:24:31;6.00;99.90
32769;DHT22;23049;54.304;8.826;2023-02-02T09:26:56;6.00;99.90
32769;DHT22;23049;54.304;8.826;2023-02-02T09:29:22;6.00;99.90
32769;DHT22;23049;54.304;8.826;2023-02-02T09:31:47;6.00;99.90
32769;DHT22;23049;54.304;8.826;2023-02-02T09:34:13;6.00;99.90
32769;DHT22;23049;54.304;8.826;2023-02-02T09:36:39;6.10;99.90
32769;DHT22;23049;54.304;8.826;2023-02-02T09:39:05;6.20;99.90
32769;DHT22;23049;54.304;8.826;2023-02-02T09:49:30;6.30;99.90
32769;DHT22;23049;54.304;8.826;2023-02-02T09:51:58;6.30;99.90
32769;DHT22;23049;54.304;8.826;2023-02-02T09:54:27;6.40;99.90
32769;DHT22;23049;54.304;8.826;2023-02-02T09:56:56;6.50;99.90
32769;DHT22;23049;54.304;8.826;2023-02-02T09:59:24;6.50;99.90
32769;DHT22;23049;54.304;8.826;2023-02-02T10:01:56;6.60;99.90
32769;DHT22;23049;54.304;8.826;2023-02-02T10:04:43;6.60;99.90
32769;DHT22;23049;54.304;8.826;2023-02-02T10:07:15;6.80;99.90
32769;DHT22;23049;54.304;8.826;2023-02-02T10:09:45;6.80;99.90
32769;DHT22;23049;54.304;8.826;2023-02-02T10:14:55;6.80;99.90
32769;DHT22;23049;54.304;8.826;2023-02-02T10:20:20;7.00;99.90
32769;DHT22;23049;54.304;8.826;2023-02-02T10:22:46;7.30;99.90
32769;DHT22;23049;54.304;8.826;2023-02-02T10:25:13;7.20;99.90
32769;DHT22;23049;54.304;8.826;2023-02-02T10:27:39;7.20;99.90
32769;DHT22;23049;54.304;8.826;2023-02-02T10:30:10;7.40;99.90
32769;DHT22;23049;54.304;8.826;2023-02-02T10:37:55;7.00;99.90
32769;DHT22;23049;54.304;8.826;2023-02-02T10:43:25;7.10;99.90
32769;DHT22;23049;54.304;8.826;2023-02-02T10:46:12;7.30;99.90
32769;DHT22;23049;54.304;8.826;2023-02-02T10:48:38;7.40;99.90
32769;DHT22;23049;54.304;8.826;2023-02-02T10:51:10;7.30;99.90
32769;DHT22;23049;54.304;8.826;2023-02-02T10:53:36;7.20;99.90
32769;DHT22;23049;54.304;8.826;2023-02-02T10:56:05;7.30;99.90
32769;DHT22;23049;54.304;8.826;2023-02-02T11:01:17;7.60;99.90
32769;DHT22;23049;54.304;8.826;2023-02-02T11:03:46;7.60;99.90
32769;DHT22;23049;54.304;8.826;2023-02-02T11:06:12;7.70;99.90
32769;DHT22;23049;54.304;8.826;2023-02-02T11:08:56;7.70;99.90
32769;DHT22;23049;54.304;8.826;2023-02-02T11:11:25;7.70;99.90
32769;DHT22;23049;54.304;8.826;2023-02-02T11:16:19;7.70;99.90
32769;DHT22;23049;54.304;8.826;2023-02-02T11:18:44;8.00;99.90
32769;DHT22;23049;54.304;8.826;2023-02-02T11:23:54;8.20;99.90
32769;DHT22;23049;54.304;8.826;2023-02-02T11:26:21;8.20;99.90
32769;DHT22;23049;54.304;8.826;2023-02-02T11:28:48;8.00;99.90
32769;DHT22;23049;54.304;8.826;2023-02-02T11:31:31;7.70;99.90
32769;DHT22;23049;54.304;8.826;2023-02-02T11:34:18;7.90;99.90
32769;DHT22;23049;54.304;8.826;2023-02-02T11:36:59;7.60;99.90
32769;DHT22;23049;54.304;8.826;2023-02-02T11:39:25;7.80;99.90
32769;DHT22;23049;54.304;8.826;2023-02-02T11:44:44;8.50;99.90
32769;DHT22;23049;54.304;8.826;2023-02-02T11:47:15;8.70;99.90
32769;DHT22;23049;54.304;8.826;2023-02-02T11:49:43;8.50;99.90
32769;DHT22;23049;54.304;8.826;2023-02-02T11:52:13;8.60;99.90
32769;DHT22;23049;54.304;8.826;2023-02-02T11:54:40;8.60;99.90
32769;DHT22;23049;54.304;8.826;2023-02-02T11:57:09;8.80;99.90
32769;DHT22;23049;54.304;8.826;2023-02-02T11:59:41;8.80;99.90
32769;DHT22;23049;54.304;8.826;2023-02-02T12:04:39;8.90;99.90
32769;DHT22;23049;54.304;8.826;2023-02-02T12:09:43;9.00;99.90
32769;DHT22;23049;54.304;8.826;2023-02-02T12:17:38;8.80;99.90
32769;DHT22;23049;54.304;8.826;2023-02-02T12:38:19;8.50;99.90
32769;DHT22;23049;54.304;8.826;2023-02-02T12:54:04;8.10;99.90
32769;DHT22;23049;54.304;8.826;2023-02-02T12:56:37;8.30;99.90
32769;DHT22;23049;54.304;8.826;2023-02-02T13:02:04;8.30;99.90
32769;DHT22;23049;54.304;8.826;2023-02-02T13:04:51;8.10;99.90
32769;DHT22;23049;54.304;8.826;2023-02-02T13:12:42;8.40;99.90
32769;DHT22;23049;54.304;8.826;2023-02-02T13:15:10;8.40;99.90
32769;DHT22;23049;54.304;8.826;2023-02-02T13:20:04;8.40;99.90
32769;DHT22;23049;54.304;8.826;2023-02-02T13:22:32;8.30;99.90
32769;DHT22;23049;54.304;8.826;2023-02-02T13:24:59;8.40;99.90
32769;DHT22;23049;54.304;8.826;2023-02-02T13:27:25;8.40;99.90
32769;DHT22;23049;54.304;8.826;2023-02-02T13:30:12;8.40;99.90
32769;DHT22;23049;54.304;8.826;2023-02-02T13:32:42;8.50;99.90
32769;DHT22;23049;54.304;8.826;2023-02-02T13:35:14;8.40;99.90
32769;DHT22;23049;54.304;8.826;2023-02-02T13:42:48;8.30;99.90
32769;DHT22;23049;54.304;8.826;2023-02-02T13:45:32;8.30;99.90
32769;DHT22;23049;54.304;8.826;2023-02-02T13:48:21;8.40;99.90
32769;DHT22;23049;54.304;8.826;2023-02-02T14:01:50;8.30;99.90
32769;DHT22;23049;54.304;8.826;2023-02-02T14:04:20;8.40;99.90
32769;DHT22;23049;54.304;8.826;2023-02-02T14:06:52;8.40;99.90
32769;DHT22;23049;54.304;8.826;2023-02-02T14:09:20;8.50;99.90
32769;DHT22;23049;54.304;8.826;2023-02-02T14:11:51;8.60;99.90
32769;DHT22;23049;54.304;8.826;2023-02-02T14:14:20;8.60;99.90
32769;DHT22;23049;54.304;8.826;2023-02-02T14:27:01;8.40;99.90
32769;DHT22;23049;54.304;8.826;2023-02-02T14:34:44;8.30;99.90
32769;DHT22;23049;54.304;8.826;2023-02-02T14:39:36;8.30;99.90
32769;DHT22;23049;54.304;8.826;2023-02-02T14:42:48;8.40;99.90
32769;DHT22;23049;54.304;8.826;2023-02-02T14:45:14;8.30;99.90
32769;DHT22;23049;54.304;8.826;2023-02-02T14:50:26;8.20;99.90
32769;DHT22;23049;54.304;8.826;2023-02-02T14:52:56;8.10;99.90
32769;DHT22;23049;54.304;8.826;2023-02-02T14:55:24;8.10;99.90
32769;DHT22;23049;54.304;8.826;2023-02-02T14:57:54;8.10;99.90
32769;DHT22;23049;54.304;8.826;2023-02-02T15:00:24;8.00;99.90
32769;DHT22;23049;54.304;8.826;2023-02-02T15:02:50;8.00;99.90
32769;DHT22;23049;54.304;8.826;2023-02-02T15:07:54;7.90;99.90
32769;DHT22;23049;54.304;8.826;2023-02-02T15:13:19;7.80;99.90
32769;DHT22;23049;54.304;8.826;2023-02-02T15:15:45;7.70;99.90
32769;DHT22;23049;54.304;8.826;2023-02-02T15:18:16;7.70;99.90
32769;DHT22;23049;54.304;8.826;2023-02-02T15:20:44;7.60;99.90
32769;DHT22;23049;54.304;8.826;2023-02-02T15:26:00;7.50;99.90
32769;DHT22;23049;54.304;8.826;2023-02-02T15:28:33;7.40;99.90
32769;DHT22;23049;54.304;8.826;2023-02-02T15:31:11;7.40;99.90
32769;DHT22;23049;54.304;8.826;2023-02-02T15:33:40;7.40;99.90
32769;DHT22;23049;54.304;8.826;2023-02-02T15:36:27;7.30;99.90
32769;DHT22;23049;54.304;8.826;2023-02-02T15:38:57;7.30;99.90
32769;DHT22;23049;54.304;8.826;2023-02-02T15:43:49;7.20;99.90
32769;DHT22;23049;54.304;8.826;2023-02-02T15:46:15;7.20;99.90
32769;DHT22;23049;54.304;8.826;2023-02-02T15:51:32;7.00;99.90
32769;DHT22;23049;54.304;8.826;2023-02-02T15:53:58;7.00;99.90
32769;DHT22;23049;54.304;8.826;2023-02-02T15:58:53;6.80;99.90
32769;DHT22;23049;54.304;8.826;2023-02-02T16:01:19;6.70;99.90
32769;DHT22;23049;54.304;8.826;2023-02-02T16:06:11;6.60;99.90
32769;DHT22;23049;54.304;8.826;2023-02-02T16:08:37;6.40;99.90
32769;DHT22;23049;54.304;8.826;2023-02-02T16:11:08;6.40;99.90
32769;DHT22;23049;54.304;8.826;2023-02-02T16:13:34;6.30;99.90
32769;DHT22;23049;54.304;8.826;2023-02-02T16:16:04;6.20;99.90
32769;DHT22;23049;54.304;8.826;2023-02-02T16:18:31;6.20;99.90
32769;DHT22;23049;54.304;8.826;2023-02-02T16:20:58;6.10;99.90
32769;DHT22;23049;54.304;8.826;2023-02-02T16:23:26;6.00;99.90
32769;DHT22;23049;54.304;8.826;2023-02-02T16:25:53;6.00;99.90
32769;DHT22;23049;54.304;8.826;2023-02-02T16:28:20;6.00;99.90
32769;DHT22;23049;54.304;8.826;2023-02-02T16:30:49;5.90;99.90
32769;DHT22;23049;54.304;8.826;2023-02-02T16:36:00;5.80;99.90
32769;DHT22;23049;54.304;8.826;2023-02-02T16:38:30;5.80;99.90
32769;DHT22;23049;54.304;8.826;2023-02-02T16:43:41;5.80;99.90
32769;DHT22;23049;54.304;8.826;2023-02-02T16:46:10;5.80;99.90
32769;DHT22;23049;54.304;8.826;2023-02-02T16:51:31;5.80;99.90
32769;DHT22;23049;54.304;8.826;2023-02-02T16:53:58;5.80;99.90
32769;DHT22;23049;54.304;8.826;2023-02-02T16:58:52;5.90;99.90
32769;DHT22;23049;54.304;8.826;2023-02-02T17:01:29;5.90;99.90
32769;DHT22;23049;54.304;8.826;2023-02-02T17:03:56;5.90;99.90
32769;DHT22;23049;54.304;8.826;2023-02-02T17:06:27;5.90;99.90
32769;DHT22;23049;54.304;8.826;2023-02-02T17:08:53;5.90;99.90
32769;DHT22;23049;54.304;8.826;2023-02-02T17:11:22;5.90;99.90
32769;DHT22;23049;54.304;8.826;2023-02-02T17:13:48;5.90;99.90
32769;DHT22;23049;54.304;8.826;2023-02-02T17:16:22;5.90;99.90
32769;DHT22;23049;54.304;8.826;2023-02-02T17:18:48;5.90;99.90
32769;DHT22;23049;54.304;8.826;2023-02-02T17:21:18;6.00;99.90
32769;DHT22;23049;54.304;8.826;2023-02-02T17:23:44;6.00;99.90
32769;DHT22;23049;54.304;8.826;2023-02-02T17:26:10;6.00;99.90
32769;DHT22;23049;54.304;8.826;2023-02-02T17:28:37;6.00;99.90
32769;DHT22;23049;54.304;8.826;2023-02-02T17:31:07;6.00;99.90
32769;DHT22;23049;54.304;8.826;2023-02-02T17:33:33;6.00;99.90
32769;DHT22;23049;54.304;8.826;2023-02-02T17:35:59;6.00;99.90
32769;DHT22;23049;54.304;8.826;2023-02-02T17:38:25;6.00;99.90
32769;DHT22;23049;54.304;8.826;2023-02-02T17:40:52;6.00;99.90
32769;DHT22;23049;54.304;8.826;2023-02-02T17:43:18;6.00;99.90
32769;DHT22;23049;54.304;8.826;2023-02-02T17:45:43;6.00;99.90
32769;DHT22;23049;54.304;8.826;2023-02-02T17:48:09;6.00;99.90
32769;DHT22;23049;54.304;8.826;2023-02-02T17:50:35;6.00;99.90
32769;DHT22;23049;54.304;8.826;2023-02-02T17:53:01;6.00;99.90
32769;DHT22;23049;54.304;8.826;2023-02-02T17:55:45;6.00;99.90
32769;DHT22;23049;54.304;8.826;2023-02-02T17:58:11;6.00;99.90
32769;DHT22;23049;54.304;8.826;2023-02-02T18:00:39;6.00;99.90
32769;DHT22;23049;54.304;8.826;2023-02-02T18:03:12;6.00;99.90
32769;DHT22;23049;54.304;8.826;2023-02-02T18:05:38;6.00;99.90
32769;DHT22;23049;54.304;8.826;2023-02-02T18:08:04;6.00;99.90
32769;DHT22;23049;54.304;8.826;2023-02-02T18:10:29;6.00;99.90
32769;DHT22;23049;54.304;8.826;2023-02-02T18:12:55;6.00;99.90
32769;DHT22;23049;54.304;8.826;2023-02-02T18:15:21;6.00;99.90
32769;DHT22;23049;54.304;8.826;2023-02-02T18:17:47;6.00;99.90
32769;DHT22;23049;54.304;8.826;2023-02-02T18:20:13;6.10;99.90
32769;DHT22;23049;54.304;8.826;2023-02-02T18:22:39;6.10;99.90
32769;DHT22;23049;54.304;8.826;2023-02-02T18:25:05;6.10;99.90
32769;DHT22;23049;54.304;8.826;2023-02-02T18:27:30;6.00;99.90
32769;DHT22;23049;54.304;8.826;2023-02-02T18:29:56;6.00;99.90
32769;DHT22;23049;54.304;8.826;2023-02-02T18:32:21;6.00;99.90
32769;DHT22;23049;54.304;8.826;2023-02-02T18:34:47;6.00;99.90
32769;DHT22;23049;54.304;8.826;2023-02-02T18:37:16;6.00;99.90
32769;DHT22;23049;54.304;8.826;2023-02-02T18:39:41;6.00;99.90
32769;DHT22;23049;54.304;8.826;2023-02-02T18:42:07;6.10;99.90